CheckWX is a tool to help pilots better visualize weather data.  It is not intended as a substitute for an official pre-flight weather briefing.

16:04:04 UTC

YTNK TAF
Tennant Creek Airport
Tennant Creek, Australia
TAF YTNK 181302Z 1814/1902 12008KT CAVOK FM182300 10014KT CAVOK

Mar-18@
14:00 UTC

Mar-18 @ 14:00 UTC

Mar-18@
23:00 UTC

Mar-18 @ 23:00 UTC

TAF YTNK 181302Z 1814/1902 12008KT CAVOK
Wind
  • 120° at 8 KTS
Conditions
No significant weather
Cloud Levels
  • No significant clouds

Mar-18@
23:00 UTC

Mar-18 @ 23:00 UTC

Mar-19@
02:00 UTC

Mar-19 @ 02:00 UTC

FM182300 10014KT CAVOK

From

From Standard forecast or significant change

Wind
  • 100° at 14 KTS
Conditions
No significant weather
Cloud Levels
  • No significant clouds